sensor_id;sensor_type;location;lat;lon;timestamp;P1;durP1;ratioP1;P2;durP2;ratioP2
50417;SDS011;36346;48.280;14.292;2023-07-13T00:02:27;5.41;;;5.41;;
50417;SDS011;36346;48.280;14.292;2023-07-13T00:04:55;5.78;;;5.78;;
50417;SDS011;36346;48.280;14.292;2023-07-13T00:07:23;5.38;;;5.38;;
50417;SDS011;36346;48.280;14.292;2023-07-13T00:09:51;5.55;;;5.55;;
50417;SDS011;36346;48.280;14.292;2023-07-13T00:12:29;5.52;;;5.52;;
50417;SDS011;36346;48.280;14.292;2023-07-13T00:15:00;5.75;;;5.75;;
50417;SDS011;36346;48.280;14.292;2023-07-13T00:17:32;5.93;;;5.93;;
50417;SDS011;36346;48.280;14.292;2023-07-13T00:20:00;5.51;;;5.51;;
50417;SDS011;36346;48.280;14.292;2023-07-13T00:22:28;5.66;;;5.66;;
50417;SDS011;36346;48.280;14.292;2023-07-13T00:24:56;5.46;;;5.46;;
50417;SDS011;36346;48.280;14.292;2023-07-13T00:27:24;5.48;;;5.48;;
50417;SDS011;36346;48.280;14.292;2023-07-13T00:29:54;5.44;;;5.44;;
50417;SDS011;36346;48.280;14.292;2023-07-13T00:32:22;5.64;;;5.64;;
50417;SDS011;36346;48.280;14.292;2023-07-13T00:34:52;5.65;;;5.65;;
50417;SDS011;36346;48.280;14.292;2023-07-13T00:37:20;5.41;;;5.41;;
50417;SDS011;36346;48.280;14.292;2023-07-13T00:39:48;5.48;;;5.48;;
50417;SDS011;36346;48.280;14.292;2023-07-13T00:42:16;5.15;;;5.15;;
50417;SDS011;36346;48.280;14.292;2023-07-13T00:47:41;5.13;;;5.13;;
50417;SDS011;36346;48.280;14.292;2023-07-13T00:50:11;5.18;;;5.18;;
50417;SDS011;36346;48.280;14.292;2023-07-13T00:52:44;5.06;;;5.06;;
50417;SDS011;36346;48.280;14.292;2023-07-13T00:55:15;5.08;;;5.08;;
50417;SDS011;36346;48.280;14.292;2023-07-13T00:57:44;5.35;;;5.35;;
50417;SDS011;36346;48.280;14.292;2023-07-13T01:00:13;5.25;;;5.25;;
50417;SDS011;36346;48.280;14.292;2023-07-13T01:02:42;4.61;;;4.61;;
50417;SDS011;36346;48.280;14.292;2023-07-13T01:05:15;4.64;;;4.64;;
50417;SDS011;36346;48.280;14.292;2023-07-13T01:07:44;5.74;;;5.74;;
50417;SDS011;36346;48.280;14.292;2023-07-13T01:10:15;4.83;;;4.83;;
50417;SDS011;36346;48.280;14.292;2023-07-13T01:12:43;4.73;;;4.73;;
50417;SDS011;36346;48.280;14.292;2023-07-13T01:18:01;5.03;;;5.03;;
50417;SDS011;36346;48.280;14.292;2023-07-13T01:20:31;5.00;;;5.00;;
50417;SDS011;36346;48.280;14.292;2023-07-13T01:23:05;4.89;;;4.89;;
50417;SDS011;36346;48.280;14.292;2023-07-13T01:25:36;4.87;;;4.87;;
50417;SDS011;36346;48.280;14.292;2023-07-13T01:28:06;5.54;;;5.54;;
50417;SDS011;36346;48.280;14.292;2023-07-13T01:30:38;5.72;;;5.72;;
50417;SDS011;36346;48.280;14.292;2023-07-13T01:33:08;5.37;;;5.37;;
50417;SDS011;36346;48.280;14.292;2023-07-13T01:35:37;5.65;;;5.65;;
50417;SDS011;36346;48.280;14.292;2023-07-13T01:38:05;5.38;;;5.38;;
50417;SDS011;36346;48.280;14.292;2023-07-13T01:40:34;5.26;;;5.26;;
50417;SDS011;36346;48.280;14.292;2023-07-13T01:43:03;5.26;;;5.26;;
50417;SDS011;36346;48.280;14.292;2023-07-13T01:45:31;5.48;;;5.48;;
50417;SDS011;36346;48.280;14.292;2023-07-13T01:47:59;6.19;;;6.19;;
50417;SDS011;36346;48.280;14.292;2023-07-13T01:50:27;6.47;;;6.47;;
50417;SDS011;36346;48.280;14.292;2023-07-13T01:52:55;5.42;;;5.42;;
50417;SDS011;36346;48.280;14.292;2023-07-13T01:55:23;5.14;;;5.14;;
50417;SDS011;36346;48.280;14.292;2023-07-13T01:57:51;5.38;;;5.38;;
50417;SDS011;36346;48.280;14.292;2023-07-13T02:00:19;5.27;;;5.27;;
50417;SDS011;36346;48.280;14.292;2023-07-13T02:02:48;5.34;;;5.34;;
50417;SDS011;36346;48.280;14.292;2023-07-13T02:05:16;5.16;;;5.16;;
50417;SDS011;36346;48.280;14.292;2023-07-13T02:07:45;5.47;;;5.47;;
50417;SDS011;36346;48.280;14.292;2023-07-13T02:10:13;5.45;;;5.45;;
50417;SDS011;36346;48.280;14.292;2023-07-13T02:12:41;5.28;;;5.28;;
50417;SDS011;36346;48.280;14.292;2023-07-13T02:15:10;4.88;;;4.88;;
50417;SDS011;36346;48.280;14.292;2023-07-13T02:17:38;5.26;;;5.26;;
50417;SDS011;36346;48.280;14.292;2023-07-13T02:20:06;5.09;;;5.09;;
50417;SDS011;36346;48.280;14.292;2023-07-13T02:22:35;5.11;;;5.11;;
50417;SDS011;36346;48.280;14.292;2023-07-13T02:25:03;4.84;;;4.84;;
50417;SDS011;36346;48.280;14.292;2023-07-13T02:27:31;4.95;;;4.95;;
50417;SDS011;36346;48.280;14.292;2023-07-13T02:30:00;4.94;;;4.94;;
50417;SDS011;36346;48.280;14.292;2023-07-13T02:32:28;4.99;;;4.99;;
50417;SDS011;36346;48.280;14.292;2023-07-13T02:34:56;4.83;;;4.83;;
50417;SDS011;36346;48.280;14.292;2023-07-13T02:37:24;5.10;;;5.10;;
50417;SDS011;36346;48.280;14.292;2023-07-13T02:39:52;4.61;;;4.61;;
50417;SDS011;36346;48.280;14.292;2023-07-13T02:42:19;4.98;;;4.98;;
50417;SDS011;36346;48.280;14.292;2023-07-13T02:44:47;4.83;;;4.83;;
50417;SDS011;36346;48.280;14.292;2023-07-13T02:47:18;4.68;;;4.68;;
50417;SDS011;36346;48.280;14.292;2023-07-13T02:49:46;4.67;;;4.67;;
50417;SDS011;36346;48.280;14.292;2023-07-13T02:52:14;4.97;;;4.97;;
50417;SDS011;36346;48.280;14.292;2023-07-13T02:54:42;4.98;;;4.98;;
50417;SDS011;36346;48.280;14.292;2023-07-13T02:57:10;4.95;;;4.95;;
50417;SDS011;36346;48.280;14.292;2023-07-13T02:59:38;4.91;;;4.91;;
50417;SDS011;36346;48.280;14.292;2023-07-13T03:02:06;4.98;;;4.98;;
50417;SDS011;36346;48.280;14.292;2023-07-13T03:04:35;4.78;;;4.78;;
50417;SDS011;36346;48.280;14.292;2023-07-13T03:07:03;4.90;;;4.90;;
50417;SDS011;36346;48.280;14.292;2023-07-13T03:09:36;4.96;;;4.96;;
50417;SDS011;36346;48.280;14.292;2023-07-13T03:12:07;4.69;;;4.69;;
50417;SDS011;36346;48.280;14.292;2023-07-13T03:14:36;4.86;;;4.86;;
50417;SDS011;36346;48.280;14.292;2023-07-13T03:17:06;5.36;;;5.36;;
50417;SDS011;36346;48.280;14.292;2023-07-13T03:19:38;4.85;;;4.85;;
50417;SDS011;36346;48.280;14.292;2023-07-13T03:22:06;4.82;;;4.82;;
50417;SDS011;36346;48.280;14.292;2023-07-13T03:24:35;5.03;;;5.03;;
50417;SDS011;36346;48.280;14.292;2023-07-13T03:27:07;4.88;;;4.88;;
50417;SDS011;36346;48.280;14.292;2023-07-13T03:29:38;4.82;;;4.82;;
50417;SDS011;36346;48.280;14.292;2023-07-13T03:32:06;4.80;;;4.80;;
50417;SDS011;36346;48.280;14.292;2023-07-13T03:34:35;4.95;;;4.95;;
50417;SDS011;36346;48.280;14.292;2023-07-13T03:37:03;5.14;;;5.14;;
50417;SDS011;36346;48.280;14.292;2023-07-13T03:39:31;5.06;;;5.06;;
50417;SDS011;36346;48.280;14.292;2023-07-13T03:42:00;4.74;;;4.74;;
50417;SDS011;36346;48.280;14.292;2023-07-13T03:44:28;5.18;;;5.18;;
50417;SDS011;36346;48.280;14.292;2023-07-13T03:46:57;5.21;;;5.21;;
50417;SDS011;36346;48.280;14.292;2023-07-13T03:49:25;5.25;;;5.25;;
50417;SDS011;36346;48.280;14.292;2023-07-13T03:51:53;5.09;;;5.09;;
50417;SDS011;36346;48.280;14.292;2023-07-13T03:54:21;4.92;;;4.92;;
50417;SDS011;36346;48.280;14.292;2023-07-13T03:56:49;5.52;;;5.52;;
50417;SDS011;36346;48.280;14.292;2023-07-13T03:59:18;5.68;;;5.68;;
50417;SDS011;36346;48.280;14.292;2023-07-13T04:01:46;5.43;;;5.43;;
50417;SDS011;36346;48.280;14.292;2023-07-13T04:04:14;5.33;;;5.33;;
50417;SDS011;36346;48.280;14.292;2023-07-13T04:06:43;5.34;;;5.34;;
50417;SDS011;36346;48.280;14.292;2023-07-13T04:09:12;5.61;;;5.61;;
50417;SDS011;36346;48.280;14.292;2023-07-13T04:11:40;5.51;;;5.51;;
50417;SDS011;36346;48.280;14.292;2023-07-13T04:14:08;5.21;;;5.21;;
50417;SDS011;36346;48.280;14.292;2023-07-13T04:16:36;5.23;;;5.23;;
50417;SDS011;36346;48.280;14.292;2023-07-13T04:19:04;5.53;;;5.53;;
50417;SDS011;36346;48.280;14.292;2023-07-13T04:21:32;5.70;;;5.70;;
50417;SDS011;36346;48.280;14.292;2023-07-13T04:23:59;5.39;;;5.39;;
50417;SDS011;36346;48.280;14.292;2023-07-13T04:26:27;5.82;;;5.82;;
50417;SDS011;36346;48.280;14.292;2023-07-13T04:28:57;5.69;;;5.69;;
50417;SDS011;36346;48.280;14.292;2023-07-13T04:31:25;5.98;;;5.98;;
50417;SDS011;36346;48.280;14.292;2023-07-13T04:33:53;5.58;;;5.58;;
50417;SDS011;36346;48.280;14.292;2023-07-13T04:36:21;5.30;;;5.30;;
50417;SDS011;36346;48.280;14.292;2023-07-13T04:38:49;5.62;;;5.62;;
50417;SDS011;36346;48.280;14.292;2023-07-13T04:41:17;5.85;;;5.85;;
50417;SDS011;36346;48.280;14.292;2023-07-13T04:43:45;5.56;;;5.56;;
50417;SDS011;36346;48.280;14.292;2023-07-13T04:46:13;5.92;;;5.92;;
50417;SDS011;36346;48.280;14.292;2023-07-13T04:48:43;5.95;;;5.95;;
50417;SDS011;36346;48.280;14.292;2023-07-13T04:51:11;5.93;;;5.93;;
50417;SDS011;36346;48.280;14.292;2023-07-13T04:53:39;5.86;;;5.86;;
50417;SDS011;36346;48.280;14.292;2023-07-13T04:56:07;5.63;;;5.63;;
50417;SDS011;36346;48.280;14.292;2023-07-13T04:58:35;5.95;;;5.95;;
50417;SDS011;36346;48.280;14.292;2023-07-13T05:01:04;5.68;;;5.68;;
50417;SDS011;36346;48.280;14.292;2023-07-13T05:03:33;5.72;;;5.72;;
50417;SDS011;36346;48.280;14.292;2023-07-13T05:06:03;6.01;;;6.01;;
50417;SDS011;36346;48.280;14.292;2023-07-13T05:08:34;5.81;;;5.81;;
50417;SDS011;36346;48.280;14.292;2023-07-13T05:11:03;5.84;;;5.84;;
50417;SDS011;36346;48.280;14.292;2023-07-13T05:13:31;5.97;;;5.97;;
50417;SDS011;36346;48.280;14.292;2023-07-13T05:16:00;6.10;;;6.10;;
50417;SDS011;36346;48.280;14.292;2023-07-13T05:18:31;5.54;;;5.54;;
50417;SDS011;36346;48.280;14.292;2023-07-13T05:21:00;5.59;;;5.59;;
50417;SDS011;36346;48.280;14.292;2023-07-13T05:23:34;5.71;;;5.71;;
50417;SDS011;36346;48.280;14.292;2023-07-13T05:26:03;5.71;;;5.71;;
50417;SDS011;36346;48.280;14.292;2023-07-13T05:28:36;6.02;;;6.02;;
50417;SDS011;36346;48.280;14.292;2023-07-13T05:31:06;5.42;;;5.42;;
50417;SDS011;36346;48.280;14.292;2023-07-13T05:33:35;5.39;;;5.39;;
50417;SDS011;36346;48.280;14.292;2023-07-13T05:36:03;5.69;;;5.69;;
50417;SDS011;36346;48.280;14.292;2023-07-13T05:38:31;5.70;;;5.70;;
50417;SDS011;36346;48.280;14.292;2023-07-13T05:40:59;6.02;;;6.02;;
50417;SDS011;36346;48.280;14.292;2023-07-13T05:43:32;6.01;;;6.01;;
50417;SDS011;36346;48.280;14.292;2023-07-13T05:46:00;6.38;;;6.38;;
50417;SDS011;36346;48.280;14.292;2023-07-13T05:48:28;5.57;;;5.57;;
50417;SDS011;36346;48.280;14.292;2023-07-13T05:50:56;6.03;;;6.03;;
50417;SDS011;36346;48.280;14.292;2023-07-13T05:53:24;6.21;;;6.21;;
50417;SDS011;36346;48.280;14.292;2023-07-13T05:55:53;6.37;;;6.37;;
50417;SDS011;36346;48.280;14.292;2023-07-13T05:58:22;6.26;;;6.26;;
50417;SDS011;36346;48.280;14.292;2023-07-13T06:00:57;6.29;;;6.29;;
50417;SDS011;36346;48.280;14.292;2023-07-13T06:03:33;5.99;;;5.99;;
50417;SDS011;36346;48.280;14.292;2023-07-13T06:06:01;5.85;;;5.85;;
50417;SDS011;36346;48.280;14.292;2023-07-13T06:08:29;6.05;;;6.05;;
50417;SDS011;36346;48.280;14.292;2023-07-13T06:13:32;6.35;;;6.35;;
50417;SDS011;36346;48.280;14.292;2023-07-13T06:16:01;5.63;;;5.63;;
50417;SDS011;36346;48.280;14.292;2023-07-13T06:18:32;5.94;;;5.94;;
50417;SDS011;36346;48.280;14.292;2023-07-13T06:21:11;5.90;;;5.90;;
50417;SDS011;36346;48.280;14.292;2023-07-13T06:23:41;6.15;;;6.15;;
50417;SDS011;36346;48.280;14.292;2023-07-13T06:26:10;5.99;;;5.99;;
50417;SDS011;36346;48.280;14.292;2023-07-13T06:28:38;6.23;;;6.23;;
50417;SDS011;36346;48.280;14.292;2023-07-13T06:31:08;6.12;;;6.12;;
50417;SDS011;36346;48.280;14.292;2023-07-13T06:33:38;5.85;;;5.85;;
50417;SDS011;36346;48.280;14.292;2023-07-13T06:36:06;6.47;;;6.47;;
50417;SDS011;36346;48.280;14.292;2023-07-13T06:38:35;5.89;;;5.89;;
50417;SDS011;36346;48.280;14.292;2023-07-13T06:41:04;5.73;;;5.73;;
50417;SDS011;36346;48.280;14.292;2023-07-13T06:43:33;5.57;;;5.57;;
50417;SDS011;36346;48.280;14.292;2023-07-13T06:46:01;5.39;;;5.39;;
50417;SDS011;36346;48.280;14.292;2023-07-13T06:48:29;5.76;;;5.76;;
50417;SDS011;36346;48.280;14.292;2023-07-13T06:50:56;5.59;;;5.59;;
50417;SDS011;36346;48.280;14.292;2023-07-13T06:53:25;5.70;;;5.70;;
50417;SDS011;36346;48.280;14.292;2023-07-13T06:55:53;5.86;;;5.86;;
50417;SDS011;36346;48.280;14.292;2023-07-13T06:58:21;5.67;;;5.67;;
50417;SDS011;36346;48.280;14.292;2023-07-13T07:00:52;6.10;;;6.10;;
50417;SDS011;36346;48.280;14.292;2023-07-13T07:03:20;5.56;;;5.56;;
50417;SDS011;36346;48.280;14.292;2023-07-13T07:05:49;5.80;;;5.80;;
50417;SDS011;36346;48.280;14.292;2023-07-13T07:08:16;5.68;;;5.68;;
50417;SDS011;36346;48.280;14.292;2023-07-13T07:10:44;5.46;;;5.46;;
50417;SDS011;36346;48.280;14.292;2023-07-13T07:13:13;5.69;;;5.69;;
50417;SDS011;36346;48.280;14.292;2023-07-13T07:15:40;6.16;;;6.16;;
50417;SDS011;36346;48.280;14.292;2023-07-13T07:18:09;6.04;;;6.04;;
50417;SDS011;36346;48.280;14.292;2023-07-13T07:20:37;5.46;;;5.46;;
50417;SDS011;36346;48.280;14.292;2023-07-13T07:23:05;6.08;;;6.08;;
50417;SDS011;36346;48.280;14.292;2023-07-13T07:25:33;5.89;;;5.89;;
50417;SDS011;36346;48.280;14.292;2023-07-13T07:28:04;5.56;;;5.56;;
50417;SDS011;36346;48.280;14.292;2023-07-13T07:30:35;5.03;;;5.03;;
50417;SDS011;36346;48.280;14.292;2023-07-13T07:33:06;4.96;;;4.96;;
50417;SDS011;36346;48.280;14.292;2023-07-13T07:35:34;4.70;;;4.70;;
50417;SDS011;36346;48.280;14.292;2023-07-13T07:38:08;4.26;;;4.26;;
50417;SDS011;36346;48.280;14.292;2023-07-13T07:40:37;4.40;;;4.40;;
50417;SDS011;36346;48.280;14.292;2023-07-13T07:43:12;4.23;;;4.23;;
50417;SDS011;36346;48.280;14.292;2023-07-13T07:45:40;4.21;;;4.21;;
50417;SDS011;36346;48.280;14.292;2023-07-13T07:48:08;4.30;;;4.30;;
50417;SDS011;36346;48.280;14.292;2023-07-13T07:50:37;4.37;;;4.37;;
50417;SDS011;36346;48.280;14.292;2023-07-13T07:53:06;4.68;;;4.68;;
50417;SDS011;36346;48.280;14.292;2023-07-13T07:55:35;4.29;;;4.29;;
50417;SDS011;36346;48.280;14.292;2023-07-13T07:58:06;4.05;;;4.05;;
50417;SDS011;36346;48.280;14.292;2023-07-13T08:00:54;4.38;;;4.38;;
50417;SDS011;36346;48.280;14.292;2023-07-13T08:03:25;4.02;;;4.02;;
50417;SDS011;36346;48.280;14.292;2023-07-13T08:05:55;4.03;;;4.03;;
50417;SDS011;36346;48.280;14.292;2023-07-13T08:08:44;4.21;;;4.21;;
50417;SDS011;36346;48.280;14.292;2023-07-13T08:11:12;3.98;;;3.98;;
50417;SDS011;36346;48.280;14.292;2023-07-13T08:13:42;4.42;;;4.42;;
50417;SDS011;36346;48.280;14.292;2023-07-13T08:16:10;4.26;;;4.26;;
50417;SDS011;36346;48.280;14.292;2023-07-13T08:18:39;4.07;;;4.07;;
50417;SDS011;36346;48.280;14.292;2023-07-13T08:21:08;4.53;;;4.53;;
50417;SDS011;36346;48.280;14.292;2023-07-13T08:23:36;4.17;;;4.17;;
50417;SDS011;36346;48.280;14.292;2023-07-13T08:26:05;4.30;;;4.30;;
50417;SDS011;36346;48.280;14.292;2023-07-13T08:28:34;4.55;;;4.55;;
50417;SDS011;36346;48.280;14.292;2023-07-13T08:31:02;4.91;;;4.91;;
50417;SDS011;36346;48.280;14.292;2023-07-13T08:33:31;4.88;;;4.88;;
50417;SDS011;36346;48.280;14.292;2023-07-13T08:35:59;5.24;;;5.24;;
50417;SDS011;36346;48.280;14.292;2023-07-13T08:38:27;5.42;;;5.42;;
50417;SDS011;36346;48.280;14.292;2023-07-13T08:40:56;7.46;;;7.46;;
50417;SDS011;36346;48.280;14.292;2023-07-13T08:43:34;5.51;;;5.51;;
50417;SDS011;36346;48.280;14.292;2023-07-13T08:46:12;5.52;;;5.52;;
50417;SDS011;36346;48.280;14.292;2023-07-13T08:53:49;5.12;;;5.12;;
50417;SDS011;36346;48.280;14.292;2023-07-13T08:56:24;4.68;;;4.68;;
50417;SDS011;36346;48.280;14.292;2023-07-13T08:59:30;4.95;;;4.95;;
50417;SDS011;36346;48.280;14.292;2023-07-13T09:07:16;4.50;;;4.50;;
50417;SDS011;36346;48.280;14.292;2023-07-13T09:12:51;4.50;;;4.50;;
50417;SDS011;36346;48.280;14.292;2023-07-13T09:15:44;4.12;;;4.12;;
50417;SDS011;36346;48.280;14.292;2023-07-13T09:20:50;4.64;;;4.64;;
50417;SDS011;36346;48.280;14.292;2023-07-13T09:23:24;4.76;;;4.76;;
50417;SDS011;36346;48.280;14.292;2023-07-13T09:25:59;4.29;;;4.29;;
50417;SDS011;36346;48.280;14.292;2023-07-13T09:28:39;4.27;;;4.27;;
50417;SDS011;36346;48.280;14.292;2023-07-13T09:31:20;4.29;;;4.29;;
50417;SDS011;36346;48.280;14.292;2023-07-13T09:33:54;4.51;;;4.51;;
50417;SDS011;36346;48.280;14.292;2023-07-13T09:36:32;4.18;;;4.18;;
50417;SDS011;36346;48.280;14.292;2023-07-13T09:39:05;4.59;;;4.59;;
50417;SDS011;36346;48.280;14.292;2023-07-13T09:44:44;4.87;;;4.87;;
50417;SDS011;36346;48.280;14.292;2023-07-13T09:47:23;4.86;;;4.86;;
50417;SDS011;36346;48.280;14.292;2023-07-13T09:50:05;4.35;;;4.35;;
50417;SDS011;36346;48.280;14.292;2023-07-13T09:52:43;4.23;;;4.23;;
50417;SDS011;36346;48.280;14.292;2023-07-13T09:55:23;4.15;;;4.15;;
50417;SDS011;36346;48.280;14.292;2023-07-13T09:57:55;4.24;;;4.24;;
50417;SDS011;36346;48.280;14.292;2023-07-13T10:00:27;4.35;;;4.35;;
50417;SDS011;36346;48.280;14.292;2023-07-13T10:03:13;4.41;;;4.41;;
50417;SDS011;36346;48.280;14.292;2023-07-13T10:05:45;4.21;;;4.21;;
50417;SDS011;36346;48.280;14.292;2023-07-13T10:08:16;4.54;;;4.54;;
50417;SDS011;36346;48.280;14.292;2023-07-13T10:10:46;4.08;;;4.08;;
50417;SDS011;36346;48.280;14.292;2023-07-13T10:13:53;4.35;;;4.35;;
50417;SDS011;36346;48.280;14.292;2023-07-13T10:16:12;4.52;;;4.52;;
50417;SDS011;36346;48.280;14.292;2023-07-13T10:18:49;3.97;;;3.97;;
50417;SDS011;36346;48.280;14.292;2023-07-13T10:21:23;4.15;;;4.15;;
50417;SDS011;36346;48.280;14.292;2023-07-13T10:24:10;4.21;;;4.21;;
50417;SDS011;36346;48.280;14.292;2023-07-13T10:26:49;4.97;;;4.97;;
50417;SDS011;36346;48.280;14.292;2023-07-13T10:29:22;4.30;;;4.30;;
50417;SDS011;36346;48.280;14.292;2023-07-13T10:31:54;3.98;;;3.98;;
50417;SDS011;36346;48.280;14.292;2023-07-13T10:34:23;3.61;;;3.61;;
50417;SDS011;36346;48.280;14.292;2023-07-13T10:36:51;3.74;;;3.74;;
50417;SDS011;36346;48.280;14.292;2023-07-13T10:39:22;3.60;;;3.60;;
50417;SDS011;36346;48.280;14.292;2023-07-13T10:41:54;3.82;;;3.82;;
50417;SDS011;36346;48.280;14.292;2023-07-13T10:44:29;3.68;;;3.68;;
50417;SDS011;36346;48.280;14.292;2023-07-13T10:46:59;3.88;;;3.88;;
50417;SDS011;36346;48.280;14.292;2023-07-13T10:49:31;3.99;;;3.99;;
50417;SDS011;36346;48.280;14.292;2023-07-13T10:52:00;3.60;;;3.60;;
50417;SDS011;36346;48.280;14.292;2023-07-13T10:54:32;3.60;;;3.60;;
50417;SDS011;36346;48.280;14.292;2023-07-13T11:00:10;4.34;;;4.34;;
50417;SDS011;36346;48.280;14.292;2023-07-13T11:02:55;3.44;;;3.44;;
50417;SDS011;36346;48.280;14.292;2023-07-13T11:11:33;4.04;;;4.04;;
50417;SDS011;36346;48.280;14.292;2023-07-13T11:14:05;3.71;;;3.71;;
50417;SDS011;36346;48.280;14.292;2023-07-13T11:16:54;3.68;;;3.68;;
50417;SDS011;36346;48.280;14.292;2023-07-13T11:19:24;4.01;;;4.01;;
50417;SDS011;36346;48.280;14.292;2023-07-13T11:30:07;3.45;;;3.45;;
50417;SDS011;36346;48.280;14.292;2023-07-13T11:33:15;3.55;;;3.55;;
50417;SDS011;36346;48.280;14.292;2023-07-13T11:36:04;3.26;;;3.26;;
50417;SDS011;36346;48.280;14.292;2023-07-13T11:38:51;3.44;;;3.44;;
50417;SDS011;36346;48.280;14.292;2023-07-13T11:41:42;3.73;;;3.73;;
50417;SDS011;36346;48.280;14.292;2023-07-13T11:44:24;3.71;;;3.71;;
50417;SDS011;36346;48.280;14.292;2023-07-13T11:46:54;3.73;;;3.73;;
50417;SDS011;36346;48.280;14.292;2023-07-13T11:49:25;3.86;;;3.86;;
50417;SDS011;36346;48.280;14.292;2023-07-13T11:51:56;3.67;;;3.67;;
50417;SDS011;36346;48.280;14.292;2023-07-13T11:54:28;3.82;;;3.82;;
50417;SDS011;36346;48.280;14.292;2023-07-13T11:57:02;4.06;;;4.06;;
50417;SDS011;36346;48.280;14.292;2023-07-13T11:59:46;3.66;;;3.66;;
50417;SDS011;36346;48.280;14.292;2023-07-13T12:02:27;3.72;;;3.72;;
50417;SDS011;36346;48.280;14.292;2023-07-13T12:04:59;3.33;;;3.33;;
50417;SDS011;36346;48.280;14.292;2023-07-13T12:07:31;2.84;;;2.84;;
50417;SDS011;36346;48.280;14.292;2023-07-13T12:10:02;2.95;;;2.95;;
50417;SDS011;36346;48.280;14.292;2023-07-13T12:15:32;2.78;;;2.78;;
50417;SDS011;36346;48.280;14.292;2023-07-13T12:18:15;3.04;;;3.04;;
50417;SDS011;36346;48.280;14.292;2023-07-13T12:20:47;3.40;;;3.40;;
50417;SDS011;36346;48.280;14.292;2023-07-13T12:25:48;4.51;;;4.51;;
50417;SDS011;36346;48.280;14.292;2023-07-13T12:28:20;4.05;;;4.05;;
50417;SDS011;36346;48.280;14.292;2023-07-13T12:36:37;3.19;;;3.19;;
50417;SDS011;36346;48.280;14.292;2023-07-13T12:39:14;3.10;;;3.10;;
50417;SDS011;36346;48.280;14.292;2023-07-13T12:41:47;2.92;;;2.92;;
50417;SDS011;36346;48.280;14.292;2023-07-13T12:44:39;3.23;;;3.23;;
50417;SDS011;36346;48.280;14.292;2023-07-13T12:47:09;3.15;;;3.15;;
50417;SDS011;36346;48.280;14.292;2023-07-13T12:49:42;3.33;;;3.33;;
50417;SDS011;36346;48.280;14.292;2023-07-13T12:52:29;3.54;;;3.54;;
50417;SDS011;36346;48.280;14.292;2023-07-13T12:55:02;3.51;;;3.51;;
50417;SDS011;36346;48.280;14.292;2023-07-13T12:57:53;3.32;;;3.32;;
50417;SDS011;36346;48.280;14.292;2023-07-13T13:00:28;3.20;;;3.20;;
50417;SDS011;36346;48.280;14.292;2023-07-13T13:03:07;3.35;;;3.35;;
50417;SDS011;36346;48.280;14.292;2023-07-13T13:06:17;3.51;;;3.51;;
50417;SDS011;36346;48.280;14.292;2023-07-13T13:08:53;3.09;;;3.09;;
50417;SDS011;36346;48.280;14.292;2023-07-13T13:11:24;3.02;;;3.02;;
50417;SDS011;36346;48.280;14.292;2023-07-13T13:13:53;3.28;;;3.28;;
50417;SDS011;36346;48.280;14.292;2023-07-13T13:16:23;3.31;;;3.31;;
50417;SDS011;36346;48.280;14.292;2023-07-13T13:19:01;3.10;;;3.10;;
50417;SDS011;36346;48.280;14.292;2023-07-13T13:21:41;3.39;;;3.39;;
50417;SDS011;36346;48.280;14.292;2023-07-13T13:24:14;3.22;;;3.22;;
50417;SDS011;36346;48.280;14.292;2023-07-13T13:26:44;3.47;;;3.47;;
50417;SDS011;36346;48.280;14.292;2023-07-13T13:29:13;3.60;;;3.60;;
50417;SDS011;36346;48.280;14.292;2023-07-13T13:31:45;3.42;;;3.42;;
50417;SDS011;36346;48.280;14.292;2023-07-13T13:34:14;3.71;;;3.71;;
50417;SDS011;36346;48.280;14.292;2023-07-13T13:36:44;3.49;;;3.49;;
50417;SDS011;36346;48.280;14.292;2023-07-13T13:39:20;3.22;;;3.22;;
50417;SDS011;36346;48.280;14.292;2023-07-13T13:41:49;3.41;;;3.41;;
50417;SDS011;36346;48.280;14.292;2023-07-13T13:44:20;3.99;;;3.99;;
50417;SDS011;36346;48.280;14.292;2023-07-13T13:46:49;4.04;;;4.04;;
50417;SDS011;36346;48.280;14.292;2023-07-13T13:49:29;3.81;;;3.81;;
50417;SDS011;36346;48.280;14.292;2023-07-13T13:51:57;3.28;;;3.28;;
50417;SDS011;36346;48.280;14.292;2023-07-13T13:54:27;3.36;;;3.36;;
50417;SDS011;36346;48.280;14.292;2023-07-13T13:56:55;3.61;;;3.61;;
50417;SDS011;36346;48.280;14.292;2023-07-13T13:59:23;3.71;;;3.71;;
50417;SDS011;36346;48.280;14.292;2023-07-13T14:01:51;3.52;;;3.52;;
50417;SDS011;36346;48.280;14.292;2023-07-13T14:04:20;3.36;;;3.36;;
50417;SDS011;36346;48.280;14.292;2023-07-13T14:06:50;2.83;;;2.83;;
50417;SDS011;36346;48.280;14.292;2023-07-13T14:09:18;3.03;;;3.03;;
50417;SDS011;36346;48.280;14.292;2023-07-13T14:11:47;2.87;;;2.87;;
50417;SDS011;36346;48.280;14.292;2023-07-13T14:14:19;3.33;;;3.33;;
50417;SDS011;36346;48.280;14.292;2023-07-13T14:16:50;3.23;;;3.23;;
50417;SDS011;36346;48.280;14.292;2023-07-13T14:19:22;3.17;;;3.17;;
50417;SDS011;36346;48.280;14.292;2023-07-13T14:21:50;2.98;;;2.98;;
50417;SDS011;36346;48.280;14.292;2023-07-13T14:24:21;2.84;;;2.84;;
50417;SDS011;36346;48.280;14.292;2023-07-13T14:26:49;3.24;;;3.24;;
50417;SDS011;36346;48.280;14.292;2023-07-13T14:29:18;3.17;;;3.17;;
50417;SDS011;36346;48.280;14.292;2023-07-13T14:31:51;4.24;;;4.24;;
50417;SDS011;36346;48.280;14.292;2023-07-13T14:34:19;3.36;;;3.36;;
50417;SDS011;36346;48.280;14.292;2023-07-13T14:36:48;2.97;;;2.97;;
50417;SDS011;36346;48.280;14.292;2023-07-13T14:39:19;2.98;;;2.98;;
50417;SDS011;36346;48.280;14.292;2023-07-13T14:41:49;2.96;;;2.96;;
50417;SDS011;36346;48.280;14.292;2023-07-13T14:44:29;2.80;;;2.80;;
50417;SDS011;36346;48.280;14.292;2023-07-13T14:46:58;2.62;;;2.62;;
50417;SDS011;36346;48.280;14.292;2023-07-13T14:52:12;2.98;;;2.98;;
50417;SDS011;36346;48.280;14.292;2023-07-13T14:54:42;2.62;;;2.62;;
50417;SDS011;36346;48.280;14.292;2023-07-13T14:57:12;2.77;;;2.77;;
50417;SDS011;36346;48.280;14.292;2023-07-13T14:59:41;3.04;;;3.04;;
50417;SDS011;36346;48.280;14.292;2023-07-13T15:04:40;2.95;;;2.95;;
50417;SDS011;36346;48.280;14.292;2023-07-13T15:07:09;2.72;;;2.72;;
50417;SDS011;36346;48.280;14.292;2023-07-13T15:09:38;2.91;;;2.91;;
50417;SDS011;36346;48.280;14.292;2023-07-13T15:12:07;2.78;;;2.78;;
50417;SDS011;36346;48.280;14.292;2023-07-13T15:14:35;2.92;;;2.92;;
50417;SDS011;36346;48.280;14.292;2023-07-13T15:17:03;2.74;;;2.74;;
50417;SDS011;36346;48.280;14.292;2023-07-13T15:19:31;2.65;;;2.65;;
50417;SDS011;36346;48.280;14.292;2023-07-13T15:21:59;3.29;;;3.29;;
50417;SDS011;36346;48.280;14.292;2023-07-13T15:24:29;2.67;;;2.67;;
50417;SDS011;36346;48.280;14.292;2023-07-13T15:26:57;3.76;;;3.76;;
50417;SDS011;36346;48.280;14.292;2023-07-13T15:29:25;2.78;;;2.78;;
50417;SDS011;36346;48.280;14.292;2023-07-13T15:31:52;2.32;;;2.32;;
50417;SDS011;36346;48.280;14.292;2023-07-13T15:34:22;3.30;;;3.30;;
50417;SDS011;36346;48.280;14.292;2023-07-13T15:36:53;4.03;;;4.03;;
50417;SDS011;36346;48.280;14.292;2023-07-13T15:39:21;2.84;;;2.84;;
50417;SDS011;36346;48.280;14.292;2023-07-13T15:41:50;2.49;;;2.49;;
50417;SDS011;36346;48.280;14.292;2023-07-13T15:44:28;2.30;;;2.30;;
50417;SDS011;36346;48.280;14.292;2023-07-13T15:46:58;2.26;;;2.26;;
50417;SDS011;36346;48.280;14.292;2023-07-13T15:49:28;2.05;;;2.05;;
50417;SDS011;36346;48.280;14.292;2023-07-13T15:51:56;2.22;;;2.22;;
50417;SDS011;36346;48.280;14.292;2023-07-13T15:54:24;2.46;;;2.46;;
50417;SDS011;36346;48.280;14.292;2023-07-13T15:56:54;2.17;;;2.17;;
50417;SDS011;36346;48.280;14.292;2023-07-13T15:59:23;2.15;;;2.15;;